createdAt,value
2022-10-05T00:01:27.418Z,6.30
2022-10-05T00:04:00.294Z,6.24
2022-10-05T00:06:30.115Z,6.26
2022-10-05T00:08:56.970Z,6.25
2022-10-05T00:11:23.553Z,6.11
2022-10-05T00:13:50.224Z,6.12
2022-10-05T00:16:20.199Z,6.12
2022-10-05T00:18:50.621Z,5.97
2022-10-05T00:21:21.120Z,6.04
2022-10-05T00:23:48.337Z,6.26
2022-10-05T00:26:20.581Z,6.24
2022-10-05T00:28:47.748Z,6.38
2022-10-05T00:31:18.963Z,6.09
2022-10-05T00:33:46.127Z,6.26
2022-10-05T00:36:13.142Z,6.36
2022-10-05T00:38:40.761Z,6.27
2022-10-05T00:41:42.492Z,6.06
2022-10-05T00:44:27.922Z,6.12
2022-10-05T00:47:15.447Z,6.26
2022-10-05T00:50:12.611Z,6.27
2022-10-05T00:52:54.577Z,6.17
2022-10-05T00:55:42.152Z,5.98
2022-10-05T00:58:39.271Z,5.87
2022-10-05T01:01:13.408Z,5.76
2022-10-05T01:04:02.322Z,5.71
2022-10-05T01:06:51.321Z,5.58
2022-10-05T01:09:33.382Z,5.63
2022-10-05T01:12:15.356Z,5.67
2022-10-05T01:15:08.868Z,5.82
2022-10-05T01:17:51.857Z,5.93
2022-10-05T01:20:18.432Z,5.90
2022-10-05T01:22:47.045Z,5.92
2022-10-05T01:25:41.230Z,5.62
2022-10-05T01:28:18.309Z,5.52
2022-10-05T01:30:52.324Z,5.64
2022-10-05T01:33:27.190Z,5.74
2022-10-05T01:36:15.083Z,5.80
2022-10-05T01:38:57.017Z,5.82
2022-10-05T01:41:37.904Z,5.78
2022-10-05T01:44:11.503Z,5.77
2022-10-05T01:47:04.083Z,5.66
2022-10-05T01:49:38.802Z,5.73
2022-10-05T01:52:29.579Z,5.77
2022-10-05T01:55:22.914Z,5.46
2022-10-05T01:58:20.167Z,5.31
2022-10-05T02:00:55.194Z,5.26
2022-10-05T02:03:32.059Z,5.31
2022-10-05T02:06:06.612Z,5.34
2022-10-05T02:08:46.512Z,5.26
2022-10-05T02:11:15.659Z,5.25
2022-10-05T02:13:44.183Z,5.17
2022-10-05T02:16:17.771Z,5.21
2022-10-05T02:18:52.238Z,5.20
2022-10-05T02:21:21.407Z,5.25
2022-10-05T02:23:52.647Z,5.18
2022-10-05T02:26:19.520Z,5.28
2022-10-05T02:28:53.199Z,5.45
2022-10-05T02:31:26.332Z,5.55
2022-10-05T02:34:14.022Z,5.39
2022-10-05T02:36:40.789Z,5.26
2022-10-05T02:39:22.164Z,5.14
2022-10-05T02:41:59.562Z,5.04
2022-10-05T02:44:43.209Z,4.96
2022-10-05T02:47:14.570Z,5.09
2022-10-05T02:49:55.090Z,5.23
2022-10-05T02:52:42.552Z,5.32
2022-10-05T02:55:28.736Z,5.39
2022-10-05T02:58:03.605Z,5.40
2022-10-05T03:00:39.625Z,5.43
2022-10-05T03:03:13.895Z,5.45
2022-10-05T03:05:48.274Z,5.20
2022-10-05T03:08:14.823Z,5.11
2022-10-05T03:10:53.239Z,5.04
2022-10-05T03:13:42.692Z,5.17
2022-10-05T03:16:18.954Z,5.24
2022-10-05T03:19:16.521Z,5.14
2022-10-05T03:21:58.411Z,5.23
2022-10-05T03:24:24.993Z,5.25
2022-10-05T03:27:01.189Z,5.26
2022-10-05T03:29:27.820Z,5.11
2022-10-05T03:32:14.348Z,4.98
2022-10-05T03:34:45.501Z,5.04
2022-10-05T03:37:40.065Z,4.94
2022-10-05T03:40:23.082Z,4.88
2022-10-05T03:43:14.243Z,4.90
2022-10-05T03:46:02.186Z,5.03
2022-10-05T03:48:32.063Z,5.13
2022-10-05T03:51:24.694Z,5.19
2022-10-05T03:53:57.673Z,5.24
2022-10-05T03:56:44.451Z,5.25
2022-10-05T03:59:18.303Z,5.08
2022-10-05T04:01:53.763Z,5.15
2022-10-05T04:04:28.686Z,5.16
2022-10-05T04:06:57.792Z,5.20
2022-10-05T04:09:30.324Z,4.94
2022-10-05T04:11:57.897Z,4.78
2022-10-05T04:14:32.559Z,4.70
2022-10-05T04:17:04.900Z,4.69
2022-10-05T04:19:47.882Z,4.81
2022-10-05T04:22:22.082Z,4.93
2022-10-05T04:24:56.205Z,4.99
2022-10-05T04:27:31.369Z,4.83
2022-10-05T04:30:05.664Z,4.63
2022-10-05T04:32:44.278Z,4.64
2022-10-05T04:35:27.198Z,4.73
2022-10-05T04:38:09.268Z,4.55
2022-10-05T04:41:12.896Z,4.43
2022-10-05T04:43:55.909Z,4.36
2022-10-05T04:46:22.631Z,4.31
2022-10-05T04:49:04.461Z,4.24
2022-10-05T04:51:37.583Z,4.38
2022-10-05T04:54:19.149Z,4.55
2022-10-05T04:56:53.119Z,4.44
2022-10-05T04:59:19.647Z,4.56
2022-10-05T05:02:06.721Z,4.55
2022-10-05T05:04:42.495Z,4.68
2022-10-05T05:07:39.698Z,4.78
2022-10-05T05:10:22.575Z,4.80
2022-10-05T05:13:03.375Z,4.80
2022-10-05T05:15:38.970Z,4.83
2022-10-05T05:18:21.759Z,4.83
2022-10-05T05:21:09.351Z,4.85
2022-10-05T05:23:49.302Z,4.85
2022-10-05T05:26:49.517Z,4.76
2022-10-05T05:29:21.545Z,4.69
2022-10-05T05:31:55.641Z,4.62
2022-10-05T05:34:45.794Z,4.55
2022-10-05T05:37:34.570Z,4.49
2022-10-05T05:40:18.123Z,4.55
2022-10-05T05:42:59.419Z,4.51
2022-10-05T05:45:41.396Z,4.60
2022-10-05T05:48:37.797Z,4.76
2022-10-05T05:51:12.497Z,4.85
2022-10-05T05:53:45.904Z,4.87
2022-10-05T05:56:15.048Z,4.94
2022-10-05T05:58:57.002Z,4.90
2022-10-05T06:01:33.527Z,4.94
2022-10-05T06:04:04.038Z,4.95
2022-10-05T06:06:32.566Z,4.98
2022-10-05T06:09:04.755Z,4.95
2022-10-05T06:11:49.396Z,4.97
2022-10-05T06:14:34.011Z,5.04
2022-10-05T06:17:12.619Z,5.16
2022-10-05T06:19:40.516Z,5.22
2022-10-05T06:22:22.456Z,5.28
2022-10-05T06:25:26.649Z,5.39
2022-10-05T06:28:13.042Z,5.49
2022-10-05T06:30:55.105Z,5.70
2022-10-05T06:33:50.892Z,5.79
2022-10-05T06:36:27.253Z,6.05
2022-10-05T06:39:09.120Z,6.16
2022-10-05T06:41:44.668Z,6.28
2022-10-05T06:44:21.809Z,6.42
2022-10-05T06:47:04.724Z,6.49
2022-10-05T06:49:42.501Z,6.53
2022-10-05T06:52:25.556Z,6.41
2022-10-05T06:55:00.198Z,6.49
2022-10-05T06:57:39.819Z,6.51
2022-10-05T07:00:15.958Z,6.47
2022-10-05T07:02:46.694Z,6.67
2022-10-05T07:05:39.018Z,6.85
2022-10-05T07:08:36.306Z,6.95
2022-10-05T07:11:26.511Z,6.93
2022-10-05T07:14:03.953Z,6.89
2022-10-05T07:17:01.067Z,6.98
2022-10-05T07:19:52.487Z,7.24
2022-10-05T07:22:46.314Z,7.20
2022-10-05T07:25:35.111Z,7.32
2022-10-05T07:28:08.859Z,7.74
2022-10-05T07:30:48.125Z,7.89
2022-10-05T07:33:24.028Z,7.97
2022-10-05T07:36:14.253Z,7.93
2022-10-05T07:38:54.692Z,7.96
2022-10-05T07:41:32.172Z,7.97
2022-10-05T07:44:17.450Z,8.10
2022-10-05T07:46:59.306Z,8.13
2022-10-05T07:49:43.121Z,8.19
2022-10-05T07:52:20.524Z,8.32
2022-10-05T07:55:06.501Z,8.70
2022-10-05T07:57:49.015Z,8.79
2022-10-05T08:00:20.414Z,8.83
2022-10-05T08:03:02.289Z,8.97
2022-10-05T08:05:32.286Z,8.90
2022-10-05T08:08:06.952Z,8.99
2022-10-05T08:10:44.550Z,9.11
2022-10-05T08:13:27.235Z,9.24
2022-10-05T08:16:00.762Z,9.41
2022-10-05T08:18:53.840Z,9.47
2022-10-05T08:21:26.703Z,9.62
2022-10-05T08:23:57.227Z,9.91
2022-10-05T08:26:44.753Z,10.09
2022-10-05T08:29:41.755Z,10.18
2022-10-05T08:32:19.766Z,10.39
2022-10-05T08:34:59.198Z,10.35
2022-10-05T08:37:32.245Z,10.46
2022-10-05T08:40:33.828Z,10.63
2022-10-05T08:43:20.361Z,10.74
2022-10-05T08:46:14.523Z,10.87
2022-10-05T08:49:02.108Z,10.92
2022-10-05T08:51:45.316Z,11.03
2022-10-05T08:54:28.596Z,11.23
2022-10-05T08:57:19.607Z,11.21
2022-10-05T09:00:04.043Z,11.06
2022-10-05T09:03:04.340Z,11.22
2022-10-05T09:06:02.448Z,11.39
2022-10-05T09:08:59.505Z,11.54
2022-10-05T09:11:42.529Z,11.61
2022-10-05T09:14:39.740Z,11.67
2022-10-05T09:17:15.652Z,11.67
2022-10-05T09:19:51.828Z,11.88
2022-10-05T09:22:30.738Z,11.92
2022-10-05T09:25:08.327Z,11.95
2022-10-05T09:27:42.952Z,11.97
2022-10-05T09:30:15.363Z,12.14
2022-10-05T09:33:17.287Z,12.13
2022-10-05T09:36:07.344Z,12.12
2022-10-05T09:38:50.931Z,12.32
2022-10-05T09:41:41.075Z,12.47
2022-10-05T09:44:43.396Z,12.72
2022-10-05T09:47:24.963Z,12.72
2022-10-05T09:50:15.589Z,12.86
2022-10-05T09:52:58.365Z,12.95
2022-10-05T09:55:57.732Z,12.93
2022-10-05T09:58:28.421Z,13.04
2022-10-05T10:01:36.417Z,13.10
2022-10-05T10:04:19.508Z,13.18
2022-10-05T10:07:04.554Z,13.20
2022-10-05T10:10:01.615Z,13.24
2022-10-05T10:12:58.736Z,13.31
2022-10-05T10:15:26.376Z,13.39
2022-10-05T10:18:09.370Z,13.40
2022-10-05T10:21:11.115Z,13.49
2022-10-05T10:23:37.670Z,13.55
2022-10-05T10:26:36.094Z,13.57
2022-10-05T10:29:18.115Z,13.62
2022-10-05T10:32:01.616Z,13.71
2022-10-05T10:34:43.878Z,13.72
2022-10-05T10:37:26.923Z,13.71
2022-10-05T10:40:12.569Z,13.86
2022-10-05T10:43:06.480Z,13.93
2022-10-05T10:45:56.308Z,13.99
2022-10-05T10:48:43.969Z,14.12
2022-10-05T10:51:17.407Z,14.24
2022-10-05T10:54:02.573Z,14.24
2022-10-05T10:56:44.811Z,14.31
2022-10-05T10:59:26.632Z,14.28
2022-10-05T11:02:15.846Z,14.42
2022-10-05T11:05:13.073Z,14.44
2022-10-05T11:08:10.158Z,14.57
2022-10-05T11:10:51.907Z,14.53
2022-10-05T11:13:27.857Z,14.53
2022-10-05T11:16:12.413Z,14.41
2022-10-05T11:18:59.719Z,14.59
2022-10-05T11:21:33.916Z,14.86
2022-10-05T11:24:00.551Z,14.97
2022-10-05T11:26:51.888Z,15.16
2022-10-05T11:29:54.756Z,15.16
2022-10-05T11:32:37.595Z,15.35
2022-10-05T11:35:06.443Z,15.34
2022-10-05T11:37:48.314Z,15.31
2022-10-05T11:40:34.088Z,15.35
2022-10-05T11:43:32.849Z,15.52
2022-10-05T11:46:19.926Z,15.63
2022-10-05T11:49:21.813Z,15.61
2022-10-05T11:52:02.481Z,15.67
2022-10-05T11:55:09.377Z,15.44
2022-10-05T11:57:38.302Z,15.57
2022-10-05T12:00:18.235Z,15.60
2022-10-05T12:03:09.470Z,15.68
2022-10-05T12:05:56.352Z,15.55
2022-10-05T12:08:23.024Z,15.70
2022-10-05T12:11:25.905Z,15.54
2022-10-05T12:14:03.885Z,15.55
2022-10-05T12:16:45.819Z,15.63
2022-10-05T12:19:41.122Z,15.70
2022-10-05T12:22:28.373Z,15.73
2022-10-05T12:25:02.888Z,15.77
2022-10-05T12:27:41.197Z,15.95
2022-10-05T12:30:24.736Z,15.98
2022-10-05T12:33:02.207Z,15.91
2022-10-05T12:35:53.764Z,15.77
2022-10-05T12:38:36.348Z,15.78
2022-10-05T12:41:32.289Z,15.66
2022-10-05T12:44:14.149Z,15.75
2022-10-05T12:46:59.098Z,15.67
2022-10-05T12:49:40.874Z,15.76
2022-10-05T12:52:23.452Z,16.03
2022-10-05T12:55:00.821Z,16.04
2022-10-05T12:57:49.429Z,15.93
2022-10-05T13:00:22.917Z,16.01
2022-10-05T13:02:58.012Z,16.14
2022-10-05T13:05:30.737Z,16.19
2022-10-05T13:08:18.005Z,16.34
2022-10-05T13:10:44.570Z,16.32
2022-10-05T13:13:34.604Z,16.22
2022-10-05T13:16:16.098Z,16.21
2022-10-05T13:19:09.065Z,16.42
2022-10-05T13:22:06.207Z,16.28
2022-10-05T13:24:46.149Z,16.22
2022-10-05T13:27:31.624Z,16.47
2022-10-05T13:30:12.324Z,16.47
2022-10-05T13:32:41.611Z,16.58
2022-10-05T13:35:23.705Z,16.55
2022-10-05T13:37:51.301Z,16.57
2022-10-05T13:40:32.970Z,16.38
2022-10-05T13:43:14.971Z,16.34
2022-10-05T13:46:02.183Z,16.39
2022-10-05T13:48:44.021Z,16.43
2022-10-05T13:51:22.301Z,16.36
2022-10-05T13:53:56.022Z,16.36
2022-10-05T13:56:31.696Z,16.30
2022-10-05T13:59:08.200Z,16.25
2022-10-05T14:01:42.518Z,16.22
2022-10-05T14:04:20.752Z,16.22
2022-10-05T14:06:48.882Z,16.20
2022-10-05T14:09:29.965Z,16.20
2022-10-05T14:12:14.361Z,16.19
2022-10-05T14:14:47.664Z,16.22
2022-10-05T14:17:17.552Z,16.23
2022-10-05T14:19:48.650Z,16.20
2022-10-05T14:22:23.193Z,16.10
2022-10-05T14:24:55.783Z,16.11
2022-10-05T14:27:27.077Z,16.19
2022-10-05T14:30:27.124Z,16.20
2022-10-05T14:33:06.811Z,16.29
2022-10-05T14:35:50.499Z,16.28
2022-10-05T14:38:21.513Z,16.34
2022-10-05T14:41:04.953Z,16.20
2022-10-05T14:43:32.788Z,16.14
2022-10-05T14:46:16.340Z,16.07
2022-10-05T14:48:45.292Z,16.06
2022-10-05T14:51:24.823Z,16.06
2022-10-05T14:54:21.965Z,15.99
2022-10-05T14:56:53.130Z,15.98
2022-10-05T14:59:35.503Z,15.95
2022-10-05T15:02:23.287Z,15.84
2022-10-05T15:05:01.505Z,15.76
2022-10-05T15:07:36.151Z,15.73
2022-10-05T15:10:07.529Z,15.64
2022-10-05T15:12:40.577Z,15.58
2022-10-05T15:15:33.200Z,15.50
2022-10-05T15:18:03.146Z,15.47
2022-10-05T15:20:45.953Z,15.44
2022-10-05T15:23:37.732Z,15.42
2022-10-05T15:26:36.343Z,15.38
2022-10-05T15:29:18.663Z,15.35
2022-10-05T15:32:00.704Z,15.34
2022-10-05T15:34:37.454Z,15.27
2022-10-05T15:37:11.917Z,15.22
2022-10-05T15:39:43.299Z,15.15
2022-10-05T15:42:15.220Z,15.11
2022-10-05T15:45:13.907Z,15.07
2022-10-05T15:47:51.933Z,15.02
2022-10-05T15:50:29.725Z,14.94
2022-10-05T15:53:02.629Z,14.88
2022-10-05T15:55:38.905Z,14.83
2022-10-05T15:58:07.861Z,14.79
2022-10-05T16:00:46.128Z,14.75
2022-10-05T16:03:13.841Z,14.69
2022-10-05T16:06:00.895Z,14.64
2022-10-05T16:08:50.475Z,14.60
2022-10-05T16:11:40.464Z,14.53
2022-10-05T16:14:28.038Z,14.45
2022-10-05T16:17:20.644Z,14.41
2022-10-05T16:19:56.764Z,14.37
2022-10-05T16:22:32.676Z,14.29
2022-10-05T16:25:07.635Z,14.24
2022-10-05T16:28:07.034Z,14.16
2022-10-05T16:30:53.651Z,14.09
2022-10-05T16:33:54.303Z,13.98
2022-10-05T16:36:36.133Z,13.88
2022-10-05T16:39:02.730Z,13.84
2022-10-05T16:41:34.896Z,13.77
2022-10-05T16:44:14.982Z,13.71
2022-10-05T16:46:50.593Z,13.65
2022-10-05T16:49:49.075Z,13.57
2022-10-05T16:52:20.387Z,13.40
2022-10-05T16:54:54.413Z,13.31
2022-10-05T16:57:22.790Z,13.28
2022-10-05T16:59:59.955Z,13.28
2022-10-05T17:02:39.901Z,13.26
2022-10-05T17:05:24.906Z,13.19
2022-10-05T17:08:05.447Z,13.06
2022-10-05T17:10:53.058Z,12.97
2022-10-05T17:13:28.511Z,12.93
2022-10-05T17:16:01.130Z,12.92
2022-10-05T17:18:49.485Z,12.92
2022-10-05T17:21:34.696Z,12.87
2022-10-05T17:24:28.086Z,12.77
2022-10-05T17:26:57.473Z,12.68
2022-10-05T17:29:54.803Z,12.56
2022-10-05T17:32:22.435Z,12.54
2022-10-05T17:35:18.191Z,12.49
2022-10-05T17:38:14.354Z,12.46
2022-10-05T17:41:03.189Z,12.39
2022-10-05T17:43:31.225Z,12.32
2022-10-05T17:46:00.663Z,12.26
2022-10-05T17:49:02.744Z,12.23
2022-10-05T17:51:44.582Z,12.11
2022-10-05T17:54:46.702Z,12.08
2022-10-05T17:57:22.245Z,12.00
2022-10-05T18:00:00.489Z,11.85
2022-10-05T18:02:42.911Z,11.81
2022-10-05T18:05:12.732Z,11.83
2022-10-05T18:07:41.391Z,11.81
2022-10-05T18:10:27.782Z,11.71
2022-10-05T18:13:19.639Z,11.66
2022-10-05T18:15:49.252Z,11.59
2022-10-05T18:18:32.230Z,11.63
2022-10-05T18:21:08.394Z,11.56
2022-10-05T18:23:36.485Z,11.30
2022-10-05T18:26:06.207Z,11.27
2022-10-05T18:29:13.821Z,11.09
2022-10-05T18:31:58.767Z,11.09
2022-10-05T18:34:36.132Z,11.10
2022-10-05T18:37:27.105Z,11.11
2022-10-05T18:40:21.307Z,11.19
2022-10-05T18:43:04.082Z,11.18
2022-10-05T18:45:58.393Z,11.08
2022-10-05T18:48:48.854Z,11.09
2022-10-05T18:51:40.503Z,11.07
2022-10-05T18:54:24.937Z,11.01
2022-10-05T18:56:52.851Z,11.00
2022-10-05T18:59:26.606Z,10.89
2022-10-05T19:02:13.931Z,10.92
2022-10-05T19:05:29.218Z,10.89
2022-10-05T19:08:11.785Z,10.61
2022-10-05T19:10:50.788Z,10.69
2022-10-05T19:13:34.545Z,10.66
2022-10-05T19:16:31.632Z,10.52
2022-10-05T19:19:33.800Z,10.59
2022-10-05T19:22:35.711Z,10.59
2022-10-05T19:25:36.729Z,10.60
2022-10-05T19:28:26.440Z,10.58
2022-10-05T19:31:14.645Z,10.59
2022-10-05T19:34:07.218Z,10.57
2022-10-05T19:37:08.285Z,10.53
2022-10-05T19:39:47.599Z,10.50
2022-10-05T19:42:49.530Z,10.46
2022-10-05T19:45:23.385Z,10.44
2022-10-05T19:48:08.687Z,10.20
2022-10-05T19:50:38.459Z,10.30
2022-10-05T19:53:14.504Z,10.18
2022-10-05T19:55:44.953Z,10.19
2022-10-05T19:58:25.086Z,10.10
2022-10-05T20:01:01.762Z,10.17
2022-10-05T20:03:29.900Z,10.02
2022-10-05T20:05:59.235Z,9.93
2022-10-05T20:08:28.538Z,9.94
2022-10-05T20:11:12.545Z,9.95
2022-10-05T20:13:44.661Z,9.95
2022-10-05T20:16:41.670Z,10.02
2022-10-05T20:19:36.559Z,10.02
2022-10-05T20:22:34.244Z,10.00
2022-10-05T20:25:03.823Z,10.01
2022-10-05T20:27:47.419Z,10.00
2022-10-05T20:30:17.861Z,9.96
2022-10-05T20:32:49.372Z,9.93
2022-10-05T20:35:18.666Z,9.90
2022-10-05T20:37:45.243Z,9.81
2022-10-05T20:40:12.152Z,9.77
2022-10-05T20:42:38.854Z,9.74
2022-10-05T20:45:06.471Z,9.72
2022-10-05T20:47:33.715Z,9.66
2022-10-05T20:50:01.158Z,9.64
2022-10-05T20:52:27.753Z,9.59
2022-10-05T20:54:58.179Z,9.53
2022-10-05T20:57:25.439Z,9.42
2022-10-05T20:59:52.110Z,9.31
2022-10-05T21:02:19.598Z,9.21
2022-10-05T21:04:47.744Z,9.15
2022-10-05T21:07:17.533Z,9.20
2022-10-05T21:09:44.750Z,9.22
2022-10-05T21:12:11.372Z,9.24
2022-10-05T21:14:38.101Z,9.29
2022-10-05T21:17:06.290Z,9.37
2022-10-05T21:19:38.256Z,9.33
2022-10-05T21:22:07.414Z,9.17
2022-10-05T21:24:37.476Z,9.10
2022-10-05T21:27:04.398Z,9.15
2022-10-05T21:29:31.868Z,9.13
2022-10-05T21:31:58.684Z,9.22
2022-10-05T21:34:25.595Z,9.23
2022-10-05T21:36:52.646Z,9.23
2022-10-05T21:39:19.562Z,9.10
2022-10-05T21:41:46.590Z,8.97
2022-10-05T21:44:24.271Z,9.08
2022-10-05T21:46:52.115Z,8.94
2022-10-05T21:49:19.830Z,9.08
2022-10-05T21:51:47.393Z,9.10
2022-10-05T21:54:16.873Z,9.12
2022-10-05T21:56:47.638Z,9.11
2022-10-05T21:59:17.216Z,8.97
2022-10-05T22:01:43.860Z,9.01
2022-10-05T22:04:10.491Z,8.94
2022-10-05T22:06:37.164Z,8.95
2022-10-05T22:09:04.920Z,8.93
2022-10-05T22:11:32.761Z,8.96
2022-10-05T22:14:02.792Z,8.97
2022-10-05T22:16:34.103Z,8.99
2022-10-05T22:19:05.153Z,8.87
2022-10-05T22:21:34.149Z,8.82
2022-10-05T22:24:02.723Z,8.84
2022-10-05T22:26:29.909Z,8.84
2022-10-05T22:28:57.699Z,8.70
2022-10-05T22:31:24.444Z,8.80
2022-10-05T22:33:51.671Z,8.83
2022-10-05T22:36:19.252Z,8.83
2022-10-05T22:38:47.551Z,8.84
2022-10-05T22:41:16.467Z,8.65
2022-10-05T22:43:43.065Z,8.61
2022-10-05T22:46:12.853Z,8.67
2022-10-05T22:48:40.214Z,8.70
2022-10-05T22:51:07.654Z,8.69
2022-10-05T22:53:34.845Z,8.56
2022-10-05T22:56:07.723Z,8.66
2022-10-05T22:58:34.900Z,8.66
2022-10-05T23:01:04.061Z,8.65
2022-10-05T23:03:31.499Z,8.64
2022-10-05T23:06:00.230Z,8.61
2022-10-05T23:08:27.461Z,8.45
2022-10-05T23:10:54.334Z,8.32
2022-10-05T23:13:22.518Z,8.30
2022-10-05T23:15:49.125Z,8.42
2022-10-05T23:18:16.742Z,8.40
2022-10-05T23:20:43.392Z,8.43
2022-10-05T23:23:10.261Z,8.39
2022-10-05T23:25:37.098Z,8.39
2022-10-05T23:28:04.035Z,8.19
2022-10-05T23:30:30.707Z,8.24
2022-10-05T23:32:57.417Z,8.27
2022-10-05T23:35:24.189Z,8.30
2022-10-05T23:37:52.079Z,8.08
2022-10-05T23:40:18.714Z,8.20
2022-10-05T23:42:45.363Z,7.95
2022-10-05T23:45:12.392Z,8.01
2022-10-05T23:47:39.819Z,8.11
2022-10-05T23:50:09.948Z,7.93
2022-10-05T23:52:36.886Z,7.87
2022-10-05T23:55:08.879Z,7.88
2022-10-05T23:57:35.529Z,7.72
